sensor_id;sensor_type;location;lat;lon;timestamp;P1;durP1;ratioP1;P2;durP2;ratioP2
30287;SDS011;17103;48.316;11.558;2024-03-22T00:01:47;14.25;;;11.48;;
30287;SDS011;17103;48.316;11.558;2024-03-22T00:04:13;14.20;;;10.00;;
30287;SDS011;17103;48.316;11.558;2024-03-22T00:06:40;18.17;;;12.70;;
30287;SDS011;17103;48.316;11.558;2024-03-22T00:09:06;14.48;;;11.23;;
30287;SDS011;17103;48.316;11.558;2024-03-22T00:11:32;15.13;;;11.23;;
30287;SDS011;17103;48.316;11.558;2024-03-22T00:13:58;14.45;;;11.13;;
30287;SDS011;17103;48.316;11.558;2024-03-22T00:16:24;14.50;;;10.88;;
30287;SDS011;17103;48.316;11.558;2024-03-22T00:18:49;13.27;;;10.30;;
30287;SDS011;17103;48.316;11.558;2024-03-22T00:21:15;17.15;;;11.18;;
30287;SDS011;17103;48.316;11.558;2024-03-22T00:23:41;16.08;;;10.60;;
30287;SDS011;17103;48.316;11.558;2024-03-22T00:26:07;13.70;;;10.57;;
30287;SDS011;17103;48.316;11.558;2024-03-22T00:28:33;19.45;;;12.50;;
30287;SDS011;17103;48.316;11.558;2024-03-22T00:30:59;16.27;;;12.07;;
30287;SDS011;17103;48.316;11.558;2024-03-22T00:33:24;16.45;;;11.88;;
30287;SDS011;17103;48.316;11.558;2024-03-22T00:35:50;14.88;;;11.73;;
30287;SDS011;17103;48.316;11.558;2024-03-22T00:38:16;17.08;;;12.93;;
30287;SDS011;17103;48.316;11.558;2024-03-22T00:40:41;16.13;;;11.73;;
30287;SDS011;17103;48.316;11.558;2024-03-22T00:43:07;17.65;;;12.57;;
30287;SDS011;17103;48.316;11.558;2024-03-22T00:45:33;14.30;;;10.52;;
30287;SDS011;17103;48.316;11.558;2024-03-22T00:47:58;13.80;;;10.52;;
30287;SDS011;17103;48.316;11.558;2024-03-22T00:50:24;14.00;;;10.98;;
30287;SDS011;17103;48.316;11.558;2024-03-22T00:52:50;14.88;;;10.73;;
30287;SDS011;17103;48.316;11.558;2024-03-22T00:55:17;16.60;;;12.63;;
30287;SDS011;17103;48.316;11.558;2024-03-22T00:57:43;19.98;;;12.13;;
30287;SDS011;17103;48.316;11.558;2024-03-22T01:00:09;16.58;;;11.80;;
30287;SDS011;17103;48.316;11.558;2024-03-22T01:02:35;15.05;;;11.02;;
30287;SDS011;17103;48.316;11.558;2024-03-22T01:05:01;16.48;;;12.57;;
30287;SDS011;17103;48.316;11.558;2024-03-22T01:07:26;15.73;;;11.02;;
30287;SDS011;17103;48.316;11.558;2024-03-22T01:09:52;18.88;;;11.98;;
30287;SDS011;17103;48.316;11.558;2024-03-22T01:12:17;13.93;;;10.77;;
30287;SDS011;17103;48.316;11.558;2024-03-22T01:14:43;14.32;;;11.38;;
30287;SDS011;17103;48.316;11.558;2024-03-22T01:17:09;20.38;;;11.93;;
30287;SDS011;17103;48.316;11.558;2024-03-22T01:19:37;15.57;;;11.23;;
30287;SDS011;17103;48.316;11.558;2024-03-22T01:22:03;16.38;;;11.35;;
30287;SDS011;17103;48.316;11.558;2024-03-22T01:24:29;14.48;;;10.55;;
30287;SDS011;17103;48.316;11.558;2024-03-22T01:26:54;13.32;;;10.18;;
30287;SDS011;17103;48.316;11.558;2024-03-22T01:29:20;15.02;;;9.82;;
30287;SDS011;17103;48.316;11.558;2024-03-22T01:31:47;16.23;;;11.25;;
30287;SDS011;17103;48.316;11.558;2024-03-22T01:34:13;13.77;;;10.52;;
30287;SDS011;17103;48.316;11.558;2024-03-22T01:36:38;15.60;;;11.02;;
30287;SDS011;17103;48.316;11.558;2024-03-22T01:39:04;15.23;;;11.15;;
30287;SDS011;17103;48.316;11.558;2024-03-22T01:41:30;17.00;;;10.82;;
30287;SDS011;17103;48.316;11.558;2024-03-22T01:43:56;16.70;;;11.80;;
30287;SDS011;17103;48.316;11.558;2024-03-22T01:46:22;16.05;;;11.35;;
30287;SDS011;17103;48.316;11.558;2024-03-22T01:48:48;18.48;;;11.05;;
30287;SDS011;17103;48.316;11.558;2024-03-22T01:51:13;16.13;;;11.10;;
30287;SDS011;17103;48.316;11.558;2024-03-22T01:53:39;17.30;;;11.43;;
30287;SDS011;17103;48.316;11.558;2024-03-22T01:56:05;13.38;;;10.48;;
30287;SDS011;17103;48.316;11.558;2024-03-22T01:58:32;15.05;;;11.30;;
30287;SDS011;17103;48.316;11.558;2024-03-22T02:00:58;18.58;;;12.43;;
30287;SDS011;17103;48.316;11.558;2024-03-22T02:03:24;14.15;;;10.77;;
30287;SDS011;17103;48.316;11.558;2024-03-22T02:05:50;15.55;;;11.65;;
30287;SDS011;17103;48.316;11.558;2024-03-22T02:08:15;14.95;;;11.05;;
30287;SDS011;17103;48.316;11.558;2024-03-22T02:10:42;14.68;;;10.98;;
30287;SDS011;17103;48.316;11.558;2024-03-22T02:13:08;13.30;;;10.07;;
30287;SDS011;17103;48.316;11.558;2024-03-22T02:15:34;17.88;;;11.65;;
30287;SDS011;17103;48.316;11.558;2024-03-22T02:17:59;15.70;;;10.73;;
30287;SDS011;17103;48.316;11.558;2024-03-22T02:20:25;17.35;;;11.15;;
30287;SDS011;17103;48.316;11.558;2024-03-22T02:22:51;16.80;;;11.57;;
30287;SDS011;17103;48.316;11.558;2024-03-22T02:25:16;15.02;;;10.88;;
30287;SDS011;17103;48.316;11.558;2024-03-22T02:27:42;19.42;;;11.50;;
30287;SDS011;17103;48.316;11.558;2024-03-22T02:30:08;14.40;;;10.18;;
30287;SDS011;17103;48.316;11.558;2024-03-22T02:32:34;20.95;;;12.50;;
30287;SDS011;17103;48.316;11.558;2024-03-22T02:35:00;15.95;;;11.68;;
30287;SDS011;17103;48.316;11.558;2024-03-22T02:37:25;16.65;;;11.52;;
30287;SDS011;17103;48.316;11.558;2024-03-22T02:39:53;18.70;;;13.07;;
30287;SDS011;17103;48.316;11.558;2024-03-22T02:42:19;16.42;;;10.85;;
30287;SDS011;17103;48.316;11.558;2024-03-22T02:44:44;15.88;;;11.85;;
30287;SDS011;17103;48.316;11.558;2024-03-22T02:47:10;16.10;;;10.50;;
30287;SDS011;17103;48.316;11.558;2024-03-22T02:49:37;17.58;;;12.80;;
30287;SDS011;17103;48.316;11.558;2024-03-22T02:52:03;16.05;;;10.38;;
30287;SDS011;17103;48.316;11.558;2024-03-22T02:54:29;19.45;;;12.13;;
30287;SDS011;17103;48.316;11.558;2024-03-22T02:56:55;16.65;;;12.38;;
30287;SDS011;17103;48.316;11.558;2024-03-22T02:59:27;15.60;;;11.18;;
30287;SDS011;17103;48.316;11.558;2024-03-22T03:01:53;16.35;;;11.93;;
30287;SDS011;17103;48.316;11.558;2024-03-22T03:04:19;14.93;;;10.85;;
30287;SDS011;17103;48.316;11.558;2024-03-22T03:06:45;16.58;;;11.20;;
30287;SDS011;17103;48.316;11.558;2024-03-22T03:09:11;15.48;;;11.15;;
30287;SDS011;17103;48.316;11.558;2024-03-22T03:11:40;19.08;;;11.38;;
30287;SDS011;17103;48.316;11.558;2024-03-22T03:14:06;14.68;;;11.23;;
30287;SDS011;17103;48.316;11.558;2024-03-22T03:16:32;14.57;;;10.73;;
30287;SDS011;17103;48.316;11.558;2024-03-22T03:18:57;15.35;;;10.07;;
30287;SDS011;17103;48.316;11.558;2024-03-22T03:21:23;15.85;;;11.32;;
30287;SDS011;17103;48.316;11.558;2024-03-22T03:23:49;15.80;;;11.18;;
30287;SDS011;17103;48.316;11.558;2024-03-22T03:26:14;15.35;;;10.77;;
30287;SDS011;17103;48.316;11.558;2024-03-22T03:28:40;14.63;;;11.15;;
30287;SDS011;17103;48.316;11.558;2024-03-22T03:31:06;17.55;;;11.70;;
30287;SDS011;17103;48.316;11.558;2024-03-22T03:33:32;15.57;;;11.68;;
30287;SDS011;17103;48.316;11.558;2024-03-22T03:35:58;17.63;;;11.38;;
30287;SDS011;17103;48.316;11.558;2024-03-22T03:38:24;14.27;;;10.57;;
30287;SDS011;17103;48.316;11.558;2024-03-22T03:40:50;17.08;;;10.93;;
30287;SDS011;17103;48.316;11.558;2024-03-22T03:43:16;14.02;;;9.82;;
30287;SDS011;17103;48.316;11.558;2024-03-22T03:45:41;16.20;;;10.70;;
30287;SDS011;17103;48.316;11.558;2024-03-22T03:48:07;13.73;;;9.57;;
30287;SDS011;17103;48.316;11.558;2024-03-22T03:50:33;13.23;;;9.05;;
30287;SDS011;17103;48.316;11.558;2024-03-22T03:52:59;12.75;;;9.02;;
30287;SDS011;17103;48.316;11.558;2024-03-22T03:55:24;13.60;;;8.93;;
30287;SDS011;17103;48.316;11.558;2024-03-22T03:57:50;11.27;;;8.18;;
30287;SDS011;17103;48.316;11.558;2024-03-22T04:00:16;13.63;;;9.55;;
30287;SDS011;17103;48.316;11.558;2024-03-22T04:02:43;12.23;;;9.05;;
30287;SDS011;17103;48.316;11.558;2024-03-22T04:05:09;13.15;;;9.27;;
30287;SDS011;17103;48.316;11.558;2024-03-22T04:07:34;13.55;;;9.23;;
30287;SDS011;17103;48.316;11.558;2024-03-22T04:10:00;14.45;;;8.73;;
30287;SDS011;17103;48.316;11.558;2024-03-22T04:12:26;13.23;;;9.57;;
30287;SDS011;17103;48.316;11.558;2024-03-22T04:14:55;15.07;;;9.48;;
30287;SDS011;17103;48.316;11.558;2024-03-22T04:17:21;16.13;;;10.15;;
30287;SDS011;17103;48.316;11.558;2024-03-22T04:19:46;13.70;;;9.43;;
30287;SDS011;17103;48.316;11.558;2024-03-22T04:22:15;13.52;;;9.27;;
30287;SDS011;17103;48.316;11.558;2024-03-22T04:24:40;12.35;;;9.10;;
30287;SDS011;17103;48.316;11.558;2024-03-22T04:27:07;12.23;;;8.77;;
30287;SDS011;17103;48.316;11.558;2024-03-22T04:29:33;11.00;;;7.88;;
30287;SDS011;17103;48.316;11.558;2024-03-22T04:31:58;13.95;;;8.98;;
30287;SDS011;17103;48.316;11.558;2024-03-22T04:34:24;15.90;;;9.93;;
30287;SDS011;17103;48.316;11.558;2024-03-22T04:36:50;13.90;;;9.73;;
30287;SDS011;17103;48.316;11.558;2024-03-22T04:39:17;13.77;;;8.55;;
30287;SDS011;17103;48.316;11.558;2024-03-22T04:41:44;13.73;;;9.45;;
30287;SDS011;17103;48.316;11.558;2024-03-22T04:44:10;13.23;;;9.95;;
30287;SDS011;17103;48.316;11.558;2024-03-22T04:46:36;12.25;;;9.70;;
30287;SDS011;17103;48.316;11.558;2024-03-22T04:49:02;12.05;;;8.40;;
30287;SDS011;17103;48.316;11.558;2024-03-22T04:51:27;11.70;;;8.23;;
30287;SDS011;17103;48.316;11.558;2024-03-22T04:53:53;21.17;;;12.48;;
30287;SDS011;17103;48.316;11.558;2024-03-22T04:56:19;13.73;;;9.65;;
30287;SDS011;17103;48.316;11.558;2024-03-22T04:58:45;17.80;;;10.50;;
30287;SDS011;17103;48.316;11.558;2024-03-22T05:01:10;14.27;;;8.02;;
30287;SDS011;17103;48.316;11.558;2024-03-22T05:03:38;12.55;;;8.25;;
30287;SDS011;17103;48.316;11.558;2024-03-22T05:06:04;15.98;;;10.95;;
30287;SDS011;17103;48.316;11.558;2024-03-22T05:08:31;27.08;;;13.88;;
30287;SDS011;17103;48.316;11.558;2024-03-22T05:10:57;38.85;;;16.55;;
30287;SDS011;17103;48.316;11.558;2024-03-22T05:13:23;42.47;;;17.60;;
30287;SDS011;17103;48.316;11.558;2024-03-22T05:15:48;37.20;;;16.33;;
30287;SDS011;17103;48.316;11.558;2024-03-22T05:18:15;17.13;;;9.65;;
30287;SDS011;17103;48.316;11.558;2024-03-22T05:20:41;15.27;;;9.65;;
30287;SDS011;17103;48.316;11.558;2024-03-22T05:23:06;14.27;;;8.52;;
30287;SDS011;17103;48.316;11.558;2024-03-22T05:25:32;12.25;;;8.27;;
30287;SDS011;17103;48.316;11.558;2024-03-22T05:27:58;19.55;;;10.20;;
30287;SDS011;17103;48.316;11.558;2024-03-22T05:30:23;22.27;;;12.07;;
30287;SDS011;17103;48.316;11.558;2024-03-22T05:32:49;17.77;;;10.32;;
30287;SDS011;17103;48.316;11.558;2024-03-22T05:35:15;16.85;;;10.63;;
30287;SDS011;17103;48.316;11.558;2024-03-22T05:37:41;16.15;;;11.00;;
30287;SDS011;17103;48.316;11.558;2024-03-22T05:40:07;12.45;;;8.45;;
30287;SDS011;17103;48.316;11.558;2024-03-22T05:42:33;16.00;;;8.00;;
30287;SDS011;17103;48.316;11.558;2024-03-22T05:45:00;10.35;;;7.57;;
30287;SDS011;17103;48.316;11.558;2024-03-22T05:47:26;12.57;;;8.75;;
30287;SDS011;17103;48.316;11.558;2024-03-22T05:49:52;11.48;;;8.30;;
30287;SDS011;17103;48.316;11.558;2024-03-22T05:52:17;13.10;;;8.48;;
30287;SDS011;17103;48.316;11.558;2024-03-22T05:54:43;11.35;;;7.85;;
30287;SDS011;17103;48.316;11.558;2024-03-22T05:57:09;13.10;;;8.15;;
30287;SDS011;17103;48.316;11.558;2024-03-22T05:59:35;10.88;;;7.47;;
30287;SDS011;17103;48.316;11.558;2024-03-22T06:02:01;11.70;;;8.25;;
30287;SDS011;17103;48.316;11.558;2024-03-22T06:04:27;11.35;;;7.72;;
30287;SDS011;17103;48.316;11.558;2024-03-22T06:06:53;12.85;;;8.20;;
30287;SDS011;17103;48.316;11.558;2024-03-22T06:09:18;11.73;;;7.82;;
30287;SDS011;17103;48.316;11.558;2024-03-22T06:11:59;12.93;;;7.57;;
30287;SDS011;17103;48.316;11.558;2024-03-22T06:14:28;8.43;;;6.20;;
30287;SDS011;17103;48.316;11.558;2024-03-22T06:16:54;11.73;;;8.30;;
30287;SDS011;17103;48.316;11.558;2024-03-22T06:19:20;11.32;;;7.20;;
30287;SDS011;17103;48.316;11.558;2024-03-22T06:21:45;10.07;;;7.18;;
30287;SDS011;17103;48.316;11.558;2024-03-22T06:24:11;13.70;;;7.82;;
30287;SDS011;17103;48.316;11.558;2024-03-22T06:26:37;9.88;;;6.72;;
30287;SDS011;17103;48.316;11.558;2024-03-22T06:29:04;9.48;;;7.45;;
30287;SDS011;17103;48.316;11.558;2024-03-22T06:31:29;10.10;;;6.60;;
30287;SDS011;17103;48.316;11.558;2024-03-22T06:33:55;10.07;;;7.15;;
30287;SDS011;17103;48.316;11.558;2024-03-22T06:36:27;9.18;;;7.25;;
30287;SDS011;17103;48.316;11.558;2024-03-22T06:38:53;12.50;;;9.05;;
30287;SDS011;17103;48.316;11.558;2024-03-22T06:41:19;13.35;;;8.55;;
30287;SDS011;17103;48.316;11.558;2024-03-22T06:43:44;12.80;;;8.27;;
30287;SDS011;17103;48.316;11.558;2024-03-22T06:46:11;11.80;;;7.28;;
30287;SDS011;17103;48.316;11.558;2024-03-22T06:48:37;12.88;;;7.80;;
30287;SDS011;17103;48.316;11.558;2024-03-22T06:51:03;13.75;;;7.93;;
30287;SDS011;17103;48.316;11.558;2024-03-22T06:53:29;12.45;;;8.23;;
30287;SDS011;17103;48.316;11.558;2024-03-22T06:55:54;10.38;;;8.38;;
30287;SDS011;17103;48.316;11.558;2024-03-22T06:58:20;10.43;;;7.72;;
30287;SDS011;17103;48.316;11.558;2024-03-22T07:00:46;11.82;;;8.02;;
30287;SDS011;17103;48.316;11.558;2024-03-22T07:03:11;10.35;;;8.43;;
30287;SDS011;17103;48.316;11.558;2024-03-22T07:05:37;10.38;;;7.97;;
30287;SDS011;17103;48.316;11.558;2024-03-22T07:08:03;13.98;;;9.80;;
30287;SDS011;17103;48.316;11.558;2024-03-22T07:10:29;13.65;;;9.00;;
30287;SDS011;17103;48.316;11.558;2024-03-22T07:12:56;12.05;;;7.95;;
30287;SDS011;17103;48.316;11.558;2024-03-22T07:15:23;13.27;;;9.15;;
30287;SDS011;17103;48.316;11.558;2024-03-22T07:17:49;13.35;;;9.20;;
30287;SDS011;17103;48.316;11.558;2024-03-22T07:20:15;13.15;;;9.13;;
30287;SDS011;17103;48.316;11.558;2024-03-22T07:22:41;12.32;;;8.27;;
30287;SDS011;17103;48.316;11.558;2024-03-22T07:25:08;14.77;;;9.70;;
30287;SDS011;17103;48.316;11.558;2024-03-22T07:27:37;11.90;;;8.88;;
30287;SDS011;17103;48.316;11.558;2024-03-22T07:30:03;13.30;;;9.73;;
30287;SDS011;17103;48.316;11.558;2024-03-22T07:32:30;17.58;;;9.95;;
30287;SDS011;17103;48.316;11.558;2024-03-22T07:34:56;13.38;;;9.40;;
30287;SDS011;17103;48.316;11.558;2024-03-22T07:37:22;14.55;;;9.68;;
30287;SDS011;17103;48.316;11.558;2024-03-22T07:39:48;9.70;;;7.63;;
30287;SDS011;17103;48.316;11.558;2024-03-22T07:42:14;13.30;;;9.05;;
30287;SDS011;17103;48.316;11.558;2024-03-22T07:44:40;15.43;;;10.13;;
30287;SDS011;17103;48.316;11.558;2024-03-22T07:47:05;13.88;;;9.77;;
30287;SDS011;17103;48.316;11.558;2024-03-22T07:49:31;15.15;;;8.93;;
30287;SDS011;17103;48.316;11.558;2024-03-22T07:51:58;11.85;;;9.00;;
30287;SDS011;17103;48.316;11.558;2024-03-22T07:54:24;11.18;;;7.93;;
30287;SDS011;17103;48.316;11.558;2024-03-22T07:56:50;12.88;;;8.48;;
30287;SDS011;17103;48.316;11.558;2024-03-22T07:59:16;13.23;;;9.10;;
30287;SDS011;17103;48.316;11.558;2024-03-22T08:01:41;13.10;;;9.52;;
30287;SDS011;17103;48.316;11.558;2024-03-22T08:04:07;13.77;;;9.57;;
30287;SDS011;17103;48.316;11.558;2024-03-22T08:06:33;13.57;;;9.35;;
30287;SDS011;17103;48.316;11.558;2024-03-22T08:08:58;15.02;;;9.73;;
30287;SDS011;17103;48.316;11.558;2024-03-22T08:11:24;15.65;;;9.23;;
30287;SDS011;17103;48.316;11.558;2024-03-22T08:13:51;13.18;;;9.50;;
30287;SDS011;17103;48.316;11.558;2024-03-22T08:16:17;12.90;;;9.50;;
30287;SDS011;17103;48.316;11.558;2024-03-22T08:18:44;14.20;;;9.63;;
30287;SDS011;17103;48.316;11.558;2024-03-22T08:21:10;11.88;;;9.77;;
30287;SDS011;17103;48.316;11.558;2024-03-22T08:23:36;10.23;;;8.07;;
30287;SDS011;17103;48.316;11.558;2024-03-22T08:26:01;14.13;;;10.15;;
30287;SDS011;17103;48.316;11.558;2024-03-22T08:28:27;10.68;;;8.48;;
30287;SDS011;17103;48.316;11.558;2024-03-22T08:30:55;13.98;;;8.25;;
30287;SDS011;17103;48.316;11.558;2024-03-22T08:33:20;12.13;;;9.15;;
30287;SDS011;17103;48.316;11.558;2024-03-22T08:35:46;13.43;;;8.73;;
30287;SDS011;17103;48.316;11.558;2024-03-22T08:38:13;13.02;;;8.57;;
30287;SDS011;17103;48.316;11.558;2024-03-22T08:40:39;10.95;;;8.77;;
30287;SDS011;17103;48.316;11.558;2024-03-22T08:43:05;10.48;;;8.32;;
30287;SDS011;17103;48.316;11.558;2024-03-22T08:45:34;12.10;;;8.70;;
30287;SDS011;17103;48.316;11.558;2024-03-22T08:48:00;12.00;;;8.50;;
30287;SDS011;17103;48.316;11.558;2024-03-22T08:50:26;10.38;;;8.40;;
30287;SDS011;17103;48.316;11.558;2024-03-22T08:52:52;12.75;;;8.68;;
30287;SDS011;17103;48.316;11.558;2024-03-22T08:55:17;10.27;;;8.15;;
30287;SDS011;17103;48.316;11.558;2024-03-22T08:57:43;11.60;;;8.35;;
30287;SDS011;17103;48.316;11.558;2024-03-22T09:00:09;10.80;;;7.85;;
30287;SDS011;17103;48.316;11.558;2024-03-22T09:02:35;12.55;;;8.57;;
30287;SDS011;17103;48.316;11.558;2024-03-22T09:05:02;12.60;;;8.13;;
30287;SDS011;17103;48.316;11.558;2024-03-22T09:07:30;11.50;;;7.40;;
30287;SDS011;17103;48.316;11.558;2024-03-22T09:09:56;9.52;;;7.80;;
30287;SDS011;17103;48.316;11.558;2024-03-22T09:12:21;11.23;;;8.35;;
30287;SDS011;17103;48.316;11.558;2024-03-22T09:14:47;9.45;;;8.05;;
30287;SDS011;17103;48.316;11.558;2024-03-22T09:17:13;9.77;;;6.93;;
30287;SDS011;17103;48.316;11.558;2024-03-22T09:19:38;13.15;;;8.32;;
30287;SDS011;17103;48.316;11.558;2024-03-22T09:22:04;9.27;;;7.30;;
30287;SDS011;17103;48.316;11.558;2024-03-22T09:24:30;10.77;;;7.40;;
30287;SDS011;17103;48.316;11.558;2024-03-22T09:26:56;10.90;;;7.30;;
30287;SDS011;17103;48.316;11.558;2024-03-22T09:29:22;9.50;;;7.38;;
30287;SDS011;17103;48.316;11.558;2024-03-22T09:31:48;8.77;;;6.75;;
30287;SDS011;17103;48.316;11.558;2024-03-22T09:34:16;11.25;;;7.75;;
30287;SDS011;17103;48.316;11.558;2024-03-22T09:36:41;11.93;;;7.60;;
30287;SDS011;17103;48.316;11.558;2024-03-22T09:39:07;9.63;;;6.50;;
30287;SDS011;17103;48.316;11.558;2024-03-22T09:41:33;9.80;;;6.68;;
30287;SDS011;17103;48.316;11.558;2024-03-22T09:44:07;8.80;;;6.85;;
30287;SDS011;17103;48.316;11.558;2024-03-22T09:46:38;13.85;;;7.40;;
30287;SDS011;17103;48.316;11.558;2024-03-22T09:49:05;9.00;;;6.82;;
30287;SDS011;17103;48.316;11.558;2024-03-22T09:51:32;14.60;;;8.80;;
30287;SDS011;17103;48.316;11.558;2024-03-22T09:53:59;8.10;;;6.45;;
30287;SDS011;17103;48.316;11.558;2024-03-22T09:56:27;8.30;;;6.03;;
30287;SDS011;17103;48.316;11.558;2024-03-22T09:58:56;12.88;;;7.00;;
30287;SDS011;17103;48.316;11.558;2024-03-22T10:01:25;10.57;;;6.10;;
30287;SDS011;17103;48.316;11.558;2024-03-22T10:03:52;10.10;;;7.55;;
30287;SDS011;17103;48.316;11.558;2024-03-22T10:06:18;8.20;;;6.05;;
30287;SDS011;17103;48.316;11.558;2024-03-22T10:08:44;8.85;;;6.38;;
30287;SDS011;17103;48.316;11.558;2024-03-22T10:11:10;9.18;;;6.40;;
30287;SDS011;17103;48.316;11.558;2024-03-22T10:13:36;7.00;;;5.97;;
30287;SDS011;17103;48.316;11.558;2024-03-22T10:16:02;9.25;;;6.63;;
30287;SDS011;17103;48.316;11.558;2024-03-22T10:18:28;14.13;;;7.68;;
30287;SDS011;17103;48.316;11.558;2024-03-22T10:21:27;6.85;;;6.15;;
30287;SDS011;17103;48.316;11.558;2024-03-22T10:23:46;12.00;;;7.10;;
30287;SDS011;17103;48.316;11.558;2024-03-22T10:26:13;8.07;;;6.50;;
30287;SDS011;17103;48.316;11.558;2024-03-22T10:28:46;9.10;;;6.25;;
30287;SDS011;17103;48.316;11.558;2024-03-22T10:31:12;11.30;;;6.93;;
30287;SDS011;17103;48.316;11.558;2024-03-22T10:33:40;11.40;;;6.70;;
30287;SDS011;17103;48.316;11.558;2024-03-22T10:36:06;8.02;;;6.60;;
30287;SDS011;17103;48.316;11.558;2024-03-22T10:38:32;10.13;;;8.27;;
30287;SDS011;17103;48.316;11.558;2024-03-22T10:41:01;10.80;;;7.72;;
30287;SDS011;17103;48.316;11.558;2024-03-22T10:43:28;8.50;;;6.35;;
30287;SDS011;17103;48.316;11.558;2024-03-22T10:45:54;8.60;;;6.25;;
30287;SDS011;17103;48.316;11.558;2024-03-22T10:48:25;11.57;;;7.50;;
30287;SDS011;17103;48.316;11.558;2024-03-22T10:50:54;11.40;;;8.10;;
30287;SDS011;17103;48.316;11.558;2024-03-22T10:53:24;10.13;;;5.75;;
30287;SDS011;17103;48.316;11.558;2024-03-22T10:55:52;10.75;;;6.47;;
30287;SDS011;17103;48.316;11.558;2024-03-22T10:58:23;11.13;;;6.85;;
30287;SDS011;17103;48.316;11.558;2024-03-22T11:00:53;9.05;;;6.20;;
30287;SDS011;17103;48.316;11.558;2024-03-22T11:03:21;11.90;;;6.35;;
30287;SDS011;17103;48.316;11.558;2024-03-22T11:05:50;7.57;;;6.25;;
30287;SDS011;17103;48.316;11.558;2024-03-22T11:08:25;14.57;;;7.05;;
30287;SDS011;17103;48.316;11.558;2024-03-22T11:10:56;12.45;;;5.72;;
30287;SDS011;17103;48.316;11.558;2024-03-22T11:13:23;11.13;;;6.50;;
30287;SDS011;17103;48.316;11.558;2024-03-22T11:15:49;7.10;;;4.95;;
30287;SDS011;17103;48.316;11.558;2024-03-22T11:18:16;7.25;;;5.38;;
30287;SDS011;17103;48.316;11.558;2024-03-22T11:23:34;7.82;;;5.50;;
30287;SDS011;17103;48.316;11.558;2024-03-22T11:26:03;7.63;;;5.43;;
30287;SDS011;17103;48.316;11.558;2024-03-22T11:28:29;6.80;;;5.10;;
30287;SDS011;17103;48.316;11.558;2024-03-22T11:30:55;6.40;;;4.97;;
30287;SDS011;17103;48.316;11.558;2024-03-22T11:33:21;7.43;;;5.10;;
30287;SDS011;17103;48.316;11.558;2024-03-22T11:35:51;7.40;;;4.78;;
30287;SDS011;17103;48.316;11.558;2024-03-22T11:38:17;8.85;;;5.22;;
30287;SDS011;17103;48.316;11.558;2024-03-22T11:40:44;7.07;;;6.10;;
30287;SDS011;17103;48.316;11.558;2024-03-22T11:43:10;7.72;;;5.30;;
30287;SDS011;17103;48.316;11.558;2024-03-22T11:45:38;12.15;;;6.07;;
30287;SDS011;17103;48.316;11.558;2024-03-22T11:48:05;6.65;;;5.45;;
30287;SDS011;17103;48.316;11.558;2024-03-22T11:50:33;8.60;;;5.10;;
30287;SDS011;17103;48.316;11.558;2024-03-22T11:53:01;8.07;;;4.85;;
30287;SDS011;17103;48.316;11.558;2024-03-22T11:55:28;8.52;;;5.22;;
30287;SDS011;17103;48.316;11.558;2024-03-22T11:57:57;6.32;;;5.30;;
30287;SDS011;17103;48.316;11.558;2024-03-22T12:00:23;6.90;;;5.13;;
30287;SDS011;17103;48.316;11.558;2024-03-22T12:02:50;11.32;;;6.38;;
30287;SDS011;17103;48.316;11.558;2024-03-22T12:05:17;8.05;;;5.65;;
30287;SDS011;17103;48.316;11.558;2024-03-22T12:07:44;7.30;;;5.45;;
30287;SDS011;17103;48.316;11.558;2024-03-22T12:10:10;8.15;;;5.25;;
30287;SDS011;17103;48.316;11.558;2024-03-22T12:12:35;7.68;;;5.00;;
30287;SDS011;17103;48.316;11.558;2024-03-22T12:15:02;8.27;;;5.28;;
30287;SDS011;17103;48.316;11.558;2024-03-22T12:17:28;6.10;;;4.32;;
30287;SDS011;17103;48.316;11.558;2024-03-22T12:19:55;9.60;;;6.32;;
30287;SDS011;17103;48.316;11.558;2024-03-22T12:22:27;7.13;;;4.85;;
30287;SDS011;17103;48.316;11.558;2024-03-22T12:24:56;8.30;;;5.22;;
30287;SDS011;17103;48.316;11.558;2024-03-22T12:27:24;9.48;;;5.32;;
30287;SDS011;17103;48.316;11.558;2024-03-22T12:29:50;11.60;;;5.90;;
30287;SDS011;17103;48.316;11.558;2024-03-22T12:32:15;6.28;;;4.57;;
30287;SDS011;17103;48.316;11.558;2024-03-22T12:34:41;4.15;;;3.72;;
30287;SDS011;17103;48.316;11.558;2024-03-22T12:37:07;7.38;;;5.40;;
30287;SDS011;17103;48.316;11.558;2024-03-22T12:39:32;7.47;;;5.50;;
30287;SDS011;17103;48.316;11.558;2024-03-22T12:42:00;9.13;;;5.47;;
30287;SDS011;17103;48.316;11.558;2024-03-22T12:44:25;8.43;;;5.15;;
30287;SDS011;17103;48.316;11.558;2024-03-22T12:46:51;7.15;;;5.13;;
30287;SDS011;17103;48.316;11.558;2024-03-22T12:49:17;7.45;;;5.13;;
30287;SDS011;17103;48.316;11.558;2024-03-22T12:51:42;6.85;;;4.38;;
30287;SDS011;17103;48.316;11.558;2024-03-22T12:54:08;8.00;;;4.78;;
30287;SDS011;17103;48.316;11.558;2024-03-22T12:56:34;7.82;;;4.55;;
30287;SDS011;17103;48.316;11.558;2024-03-22T12:59:02;5.20;;;4.70;;
30287;SDS011;17103;48.316;11.558;2024-03-22T13:01:27;5.47;;;4.20;;
30287;SDS011;17103;48.316;11.558;2024-03-22T13:03:54;7.55;;;4.75;;
30287;SDS011;17103;48.316;11.558;2024-03-22T13:06:20;6.47;;;4.80;;
30287;SDS011;17103;48.316;11.558;2024-03-22T13:08:45;5.10;;;4.10;;
30287;SDS011;17103;48.316;11.558;2024-03-22T13:11:11;4.43;;;3.60;;
30287;SDS011;17103;48.316;11.558;2024-03-22T13:13:38;4.28;;;3.60;;
30287;SDS011;17103;48.316;11.558;2024-03-22T13:16:03;4.78;;;3.42;;
30287;SDS011;17103;48.316;11.558;2024-03-22T13:18:29;3.53;;;3.10;;
30287;SDS011;17103;48.316;11.558;2024-03-22T13:20:55;3.60;;;2.58;;
30287;SDS011;17103;48.316;11.558;2024-03-22T13:23:21;4.53;;;3.45;;
30287;SDS011;17103;48.316;11.558;2024-03-22T13:25:47;4.90;;;2.67;;
30287;SDS011;17103;48.316;11.558;2024-03-22T13:28:13;4.78;;;2.92;;
30287;SDS011;17103;48.316;11.558;2024-03-22T13:30:38;4.75;;;2.85;;
30287;SDS011;17103;48.316;11.558;2024-03-22T13:33:05;5.05;;;2.92;;
30287;SDS011;17103;48.316;11.558;2024-03-22T13:35:33;7.90;;;4.00;;
30287;SDS011;17103;48.316;11.558;2024-03-22T13:37:59;7.07;;;3.85;;
30287;SDS011;17103;48.316;11.558;2024-03-22T13:40:26;29.55;;;16.45;;
30287;SDS011;17103;48.316;11.558;2024-03-22T13:42:55;10.52;;;6.07;;
30287;SDS011;17103;48.316;11.558;2024-03-22T13:45:20;6.90;;;4.43;;
30287;SDS011;17103;48.316;11.558;2024-03-22T13:47:56;5.80;;;4.15;;
30287;SDS011;17103;48.316;11.558;2024-03-22T13:50:22;4.38;;;2.90;;
30287;SDS011;17103;48.316;11.558;2024-03-22T13:52:48;5.88;;;3.00;;
30287;SDS011;17103;48.316;11.558;2024-03-22T13:55:14;3.22;;;2.55;;
30287;SDS011;17103;48.316;11.558;2024-03-22T13:57:39;5.15;;;2.40;;
30287;SDS011;17103;48.316;11.558;2024-03-22T14:00:05;3.17;;;2.42;;
30287;SDS011;17103;48.316;11.558;2024-03-22T14:02:32;4.97;;;2.25;;
30287;SDS011;17103;48.316;11.558;2024-03-22T14:04:58;6.90;;;2.70;;
30287;SDS011;17103;48.316;11.558;2024-03-22T14:07:26;5.13;;;3.20;;
30287;SDS011;17103;48.316;11.558;2024-03-22T14:09:52;3.03;;;2.00;;
30287;SDS011;17103;48.316;11.558;2024-03-22T14:12:18;2.20;;;2.00;;
30287;SDS011;17103;48.316;11.558;2024-03-22T14:14:43;4.80;;;2.10;;
30287;SDS011;17103;48.316;11.558;2024-03-22T14:17:11;4.13;;;2.67;;
30287;SDS011;17103;48.316;11.558;2024-03-22T14:19:37;2.85;;;2.10;;